Time;durP1;ratioP1;P1;durP2;ratioP2;P2;SDS_P1;SDS_P2;PMS_P1;PMS_P2;Temp;Humidity;BMP_temperature;BMP_pressure;BME280_temperature;BME280_humidity;BME280_pressure;Samples;Min_cycle;Max_cycle;Signal;HPM_P1;HPM_P2
2021/09/28 00:00:32;;;;;;;18.40;9.40;;;13.30;99.90;;;;;;5067141;28;20200;-75
2021/09/28 00:02:59;;;;;;;29.20;11.25;;;13.30;99.90;;;;;;5048617;28;20212;-75
2021/09/28 00:05:25;;;;;;;30.00;10.82;;;13.40;99.90;;;;;;5065516;28;20195;-75
2021/09/28 00:07:51;;;;;;;24.20;10.25;;;13.50;99.90;;;;;;5065567;28;20196;-75
2021/09/28 00:10:18;;;;;;;26.77;12.15;;;13.60;99.90;;;;;;5065500;28;20267;-75
2021/09/28 00:12:44;;;;;;;35.35;11.85;;;13.70;99.90;;;;;;5066925;28;20188;-75
2021/09/28 00:15:13;;;;;;;29.80;11.60;;;13.80;99.90;;;;;;5064893;28;20177;-75
2021/09/28 00:17:39;;;;;;;28.38;12.25;;;13.90;99.90;;;;;;5067272;28;20161;-75
2021/09/28 00:20:07;;;;;;;26.65;11.98;;;13.90;99.90;;;;;;5065961;28;20668;-75
2021/09/28 00:22:33;;;;;;;19.33;9.48;;;13.90;99.90;;;;;;5055580;28;20208;-75
2021/09/28 00:24:59;;;;;;;28.30;11.68;;;13.90;99.90;;;;;;5056491;28;20181;-75
2021/09/28 00:27:25;;;;;;;33.45;11.68;;;13.90;99.90;;;;;;5066419;28;20180;-76
2021/09/28 00:29:52;;;;;;;31.38;12.48;;;14.00;99.90;;;;;;5047469;28;20206;-76
2021/09/28 00:32:18;;;;;;;23.50;10.18;;;14.00;99.90;;;;;;5066946;28;20176;-75
2021/09/28 00:34:45;;;;;;;27.08;11.57;;;13.90;99.90;;;;;;5053664;28;20203;-76
2021/09/28 00:37:11;;;;;;;26.27;12.10;;;13.90;99.90;;;;;;5049590;28;20661;-75
2021/09/28 00:39:37;;;;;;;25.30;10.95;;;13.70;99.90;;;;;;5059875;28;20208;-75
2021/09/28 00:42:04;;;;;;;16.95;9.05;;;13.80;99.90;;;;;;5067838;28;20191;-75
2021/09/28 00:44:43;;;;;;;20.02;9.10;;;13.70;99.90;;;;;;5066649;28;20207;-76
2021/09/28 00:47:10;;;;;;;18.48;9.00;;;13.60;99.90;;;;;;5063647;28;20180;-74
2021/09/28 00:49:44;;;;;;;20.55;9.93;;;13.60;99.90;;;;;;5069820;28;20184;-75
2021/09/28 00:52:12;;;;;;;26.60;10.52;;;13.70;99.90;;;;;;5056606;28;20243;-75
2021/09/28 00:54:39;;;;;;;19.15;9.05;;;13.60;99.90;;;;;;5060071;28;20185;-75
2021/09/28 00:57:09;;;;;;;23.30;8.50;;;13.60;99.90;;;;;;5067359;28;20211;-75
2021/09/28 00:59:36;;;;;;;18.83;9.27;;;13.60;99.90;;;;;;5068078;28;20185;-75
2021/09/28 01:02:04;;;;;;;17.80;8.25;;;13.70;99.90;;;;;;5051900;28;20212;-75
2021/09/28 01:04:30;;;;;;;22.23;8.55;;;13.70;99.90;;;;;;5069880;28;20201;-74
2021/09/28 01:06:59;;;;;;;21.33;9.85;;;13.70;99.90;;;;;;5069028;28;20279;-74
2021/09/28 01:09:26;;;;;;;25.92;10.02;;;13.70;99.90;;;;;;5058623;28;20193;-75
2021/09/28 01:11:52;;;;;;;21.95;9.40;;;13.60;99.90;;;;;;5069553;28;20204;-75
2021/09/28 01:14:18;;;;;;;20.25;9.52;;;13.60;99.90;;;;;;5055573;28;20191;-75
2021/09/28 01:16:44;;;;;;;22.77;10.02;;;13.60;99.90;;;;;;5052218;28;20229;-74
2021/09/28 01:19:10;;;;;;;30.35;10.85;;;13.60;99.90;;;;;;5068474;28;20180;-75
2021/09/28 01:21:38;;;;;;;28.33;10.20;;;13.60;99.90;;;;;;5051910;28;20204;-75
2021/09/28 01:24:08;;;;;;;20.00;9.93;;;13.60;99.90;;;;;;5050066;28;20208;-74
2021/09/28 01:26:34;;;;;;;20.88;9.95;;;13.60;99.90;;;;;;5065781;28;20192;-75
2021/09/28 01:29:04;;;;;;;26.10;9.38;;;13.50;99.90;;;;;;5070019;28;20176;-75
2021/09/28 01:31:30;;;;;;;23.50;9.98;;;13.50;99.90;;;;;;5061356;28;20257;-74
2021/09/28 01:33:56;;;;;;;21.77;9.73;;;13.50;99.90;;;;;;5055879;28;20189;-75
2021/09/28 01:36:25;;;;;;;23.35;9.27;;;13.60;99.90;;;;;;5052975;28;20191;-75
2021/09/28 01:38:51;;;;;;;24.48;10.63;;;13.70;99.90;;;;;;5049643;28;20264;-74
2021/09/28 01:41:17;;;;;;;19.90;9.90;;;13.60;99.90;;;;;;5067361;28;20279;-74
2021/09/28 01:43:43;;;;;;;24.95;10.48;;;13.60;99.90;;;;;;5069734;28;20211;-74
2021/09/28 01:46:09;;;;;;;18.02;9.50;;;13.60;99.90;;;;;;5053831;28;20553;-75
2021/09/28 01:48:51;;;;;;;17.30;8.73;;;13.60;99.90;;;;;;5062127;28;20664;-74
2021/09/28 01:51:17;;;;;;;26.10;10.38;;;13.70;99.90;;;;;;5047943;28;20280;-74
2021/09/28 01:53:44;;;;;;;20.63;7.70;;;13.60;99.90;;;;;;5040373;28;20185;-74
2021/09/28 01:56:21;;;;;;;20.58;8.93;;;13.40;99.90;;;;;;5048429;28;20193;-74
2021/09/28 01:58:48;;;;;;;32.20;10.48;;;13.20;99.90;;;;;;5047395;28;20185;-74
2021/09/28 02:01:14;;;;;;;21.38;9.77;;;13.10;99.90;;;;;;5047306;28;20196;-74
2021/09/28 02:03:40;;;;;;;23.63;10.50;;;13.10;99.90;;;;;;5049432;28;20224;-74
2021/09/28 02:06:06;;;;;;;19.33;9.27;;;13.10;99.90;;;;;;5035890;28;20236;-74
2021/09/28 02:08:32;;;;;;;30.08;10.05;;;13.10;99.90;;;;;;5049191;28;20233;-74
2021/09/28 02:10:58;;;;;;;22.23;9.50;;;13.10;99.90;;;;;;5046983;28;20207;-74
2021/09/28 02:13:24;;;;;;;19.27;8.93;;;13.00;99.90;;;;;;5046537;28;20206;-76
2021/09/28 02:15:50;;;;;;;21.90;9.18;;;13.10;99.90;;;;;;5036521;28;20213;-75
2021/09/28 02:18:16;;;;;;;28.98;12.27;;;13.20;99.90;;;;;;5036354;28;20718;-75
2021/09/28 02:20:42;;;;;;;22.23;9.68;;;13.20;99.90;;;;;;5047943;28;20227;-73
2021/09/28 02:23:09;;;;;;;27.38;10.65;;;13.10;99.90;;;;;;5038525;28;20307;-75
2021/09/28 02:25:35;;;;;;;24.08;11.20;;;13.10;99.90;;;;;;5040572;28;20236;-74
2021/09/28 02:28:01;;;;;;;21.80;9.88;;;13.20;99.90;;;;;;5032571;28;20213;-76
2021/09/28 02:30:27;;;;;;;30.30;10.90;;;13.20;99.90;;;;;;5048247;28;20284;-75
2021/09/28 02:32:53;;;;;;;26.90;10.48;;;13.20;99.90;;;;;;5064027;28;20189;-74
2021/09/28 02:35:19;;;;;;;24.35;11.13;;;13.10;99.90;;;;;;5040021;28;20217;-73
2021/09/28 02:37:45;;;;;;;20.67;9.73;;;13.10;99.90;;;;;;5029134;28;20751;-73
2021/09/28 02:40:11;;;;;;;21.63;9.30;;;13.00;99.90;;;;;;5032257;28;20254;-74
2021/09/28 02:42:38;;;;;;;17.80;7.38;;;12.90;99.90;;;;;;5047078;28;20681;-74
2021/09/28 02:45:05;;;;;;;14.35;7.10;;;12.70;99.90;;;;;;5047580;28;20181;-75
2021/09/28 02:47:31;;;;;;;16.10;6.80;;;12.50;99.90;;;;;;5045481;28;20219;-77
2021/09/28 02:49:58;;;;;;;12.25;7.05;;;12.60;99.90;;;;;;5044440;28;20181;-76
2021/09/28 02:52:24;;;;;;;12.27;5.82;;;12.50;99.90;;;;;;5062248;28;20265;-75
2021/09/28 02:54:51;;;;;;;17.15;7.22;;;12.50;99.90;;;;;;5059753;28;20266;-74
2021/09/28 02:57:17;;;;;;;11.55;6.35;;;12.50;99.90;;;;;;5030544;28;20223;-74
2021/09/28 02:59:43;;;;;;;11.13;6.85;;;12.40;99.90;;;;;;5042413;28;20176;-74
2021/09/28 03:02:09;;;;;;;11.15;6.07;;;12.30;99.90;;;;;;5066674;28;20202;-75
2021/09/28 03:04:35;;;;;;;11.25;6.20;;;12.20;99.90;;;;;;5067553;28;20650;-76
2021/09/28 03:07:01;;;;;;;12.38;6.55;;;12.20;99.90;;;;;;5065216;28;20176;-75
2021/09/28 03:09:27;;;;;;;16.25;6.78;;;12.20;99.90;;;;;;5066731;28;20191;-75
2021/09/28 03:11:53;;;;;;;16.70;6.82;;;12.20;99.90;;;;;;5066232;28;20192;-75
2021/09/28 03:14:19;;;;;;;19.33;6.45;;;12.10;99.90;;;;;;5067961;28;20195;-75
2021/09/28 03:16:47;;;;;;;11.93;6.32;;;12.10;99.90;;;;;;5067206;28;20203;-74
2021/09/28 03:19:15;;;;;;;11.82;6.63;;;12.00;99.90;;;;;;5059951;28;20263;-73
2021/09/28 03:21:43;;;;;;;12.57;6.45;;;12.00;99.90;;;;;;5066303;28;20210;-75
2021/09/28 03:24:09;;;;;;;7.70;5.55;;;11.90;99.90;;;;;;5067016;28;20207;-75
2021/09/28 03:26:35;;;;;;;13.25;6.35;;;11.90;99.90;;;;;;5067099;28;20183;-75
2021/09/28 03:29:02;;;;;;;13.50;6.80;;;12.00;99.90;;;;;;5052845;28;20189;-75
2021/09/28 03:31:27;;;;;;;11.90;6.57;;;11.90;99.90;;;;;;5062477;28;20204;-75
2021/09/28 03:33:53;;;;;;;13.55;6.32;;;11.90;99.90;;;;;;5061566;28;20180;-74
2021/09/28 03:36:19;;;;;;;17.30;6.47;;;11.90;99.90;;;;;;5065281;28;20176;-74
2021/09/28 03:38:46;;;;;;;10.43;5.40;;;11.90;99.90;;;;;;5063180;28;20326;-75
2021/09/28 03:41:11;;;;;;;11.25;6.20;;;11.80;99.90;;;;;;5066202;28;20291;-75
2021/09/28 03:43:37;;;;;;;12.13;6.32;;;11.80;99.90;;;;;;5067475;28;20196;-73
2021/09/28 03:46:03;;;;;;;13.18;5.75;;;11.80;99.90;;;;;;5065985;28;20630;-75
2021/09/28 03:48:29;;;;;;;13.55;5.40;;;11.90;99.90;;;;;;5065982;28;20293;-74
2021/09/28 03:50:55;;;;;;;10.35;5.65;;;11.90;99.90;;;;;;5067090;28;20191;-74
2021/09/28 03:53:21;;;;;;;17.70;5.93;;;11.80;99.90;;;;;;5059399;28;20181;-74
2021/09/28 03:55:47;;;;;;;13.10;6.30;;;11.70;99.90;;;;;;5059414;28;20196;-74
2021/09/28 03:58:15;;;;;;;14.65;6.47;;;11.70;99.90;;;;;;5065596;28;20177;-75
2021/09/28 04:00:42;;;;;;;15.23;6.97;;;11.70;99.90;;;;;;5066146;28;20272;-75
2021/09/28 04:03:09;;;;;;;9.73;6.05;;;11.70;99.90;;;;;;5064963;28;20217;-75
2021/09/28 04:05:35;;;;;;;9.52;5.88;;;11.70;99.90;;;;;;5049059;28;20210;-74
2021/09/28 04:08:02;;;;;;;12.52;6.97;;;11.60;99.90;;;;;;5045500;28;20207;-76
2021/09/28 04:10:28;;;;;;;15.00;6.70;;;11.60;99.90;;;;;;5064728;28;20739;-75
2021/09/28 04:12:54;;;;;;;10.93;5.45;;;11.60;99.90;;;;;;5065439;28;20181;-75
2021/09/28 04:15:25;;;;;;;13.23;5.47;;;11.60;99.90;;;;;;5067616;28;20172;-77
2021/09/28 04:17:53;;;;;;;11.85;5.90;;;11.70;99.90;;;;;;5070811;28;20153;-74
2021/09/28 04:20:20;;;;;;;12.77;5.65;;;11.70;99.90;;;;;;5067271;28;20208;-75
2021/09/28 04:22:46;;;;;;;9.75;5.90;;;11.70;99.90;;;;;;5065589;28;20196;-74
2021/09/28 04:25:13;;;;;;;12.43;6.50;;;11.70;99.90;;;;;;5067102;28;20189;-75
2021/09/28 04:27:39;;;;;;;11.48;6.20;;;11.70;99.90;;;;;;5053094;28;20192;-75
2021/09/28 04:30:06;;;;;;;13.75;6.60;;;11.70;99.90;;;;;;5063194;28;20216;-77
2021/09/28 04:32:33;;;;;;;13.55;5.90;;;11.70;99.90;;;;;;5068433;28;20176;-76
2021/09/28 04:34:59;;;;;;;17.10;5.72;;;11.70;99.90;;;;;;5068700;28;20256;-74
2021/09/28 04:37:25;;;;;;;11.90;6.75;;;11.60;99.90;;;;;;5051345;28;20161;-74
2021/09/28 04:39:51;;;;;;;16.77;6.32;;;11.50;99.90;;;;;;5049874;28;20177;-75
2021/09/28 04:42:17;;;;;;;22.30;6.90;;;11.50;99.90;;;;;;5050860;28;20185;-75
2021/09/28 04:44:43;;;;;;;18.90;6.57;;;11.50;99.90;;;;;;5050854;28;20165;-75
2021/09/28 04:47:10;;;;;;;14.63;6.43;;;11.50;99.90;;;;;;5068814;28;20291;-75
2021/09/28 04:49:36;;;;;;;15.80;6.22;;;11.50;99.90;;;;;;5067255;28;20215;-75
2021/09/28 04:52:03;;;;;;;14.05;6.25;;;11.50;99.90;;;;;;5070432;28;20255;-74
2021/09/28 04:54:29;;;;;;;18.85;6.85;;;11.60;99.90;;;;;;5050094;28;20189;-74
2021/09/28 04:56:55;;;;;;;12.55;6.80;;;11.70;99.90;;;;;;5069397;28;20195;-75
2021/09/28 04:59:21;;;;;;;11.98;6.82;;;11.60;99.90;;;;;;5052545;28;20616;-75
2021/09/28 05:01:46;;;;;;;13.38;6.63;;;11.60;99.90;;;;;;5068328;28;20212;-74
2021/09/28 05:04:12;;;;;;;10.98;6.45;;;11.60;99.90;;;;;;5072004;28;20192;-74
2021/09/28 05:06:38;;;;;;;18.98;6.80;;;11.60;99.90;;;;;;5071084;28;20177;-74
2021/09/28 05:09:04;;;;;;;13.30;6.07;;;11.50;99.90;;;;;;5071024;28;20164;-74
2021/09/28 05:11:30;;;;;;;13.80;7.32;;;11.50;99.90;;;;;;5070271;28;20196;-74
2021/09/28 05:13:56;;;;;;;17.52;6.68;;;11.50;99.90;;;;;;5070254;28;20225;-74
2021/09/28 05:16:22;;;;;;;11.82;6.38;;;11.60;99.90;;;;;;5070680;28;20187;-75
2021/09/28 05:18:49;;;;;;;14.27;6.53;;;11.70;99.90;;;;;;5070104;28;20220;-74
2021/09/28 05:21:15;;;;;;;11.20;6.57;;;11.70;99.90;;;;;;5070025;28;20196;-74
2021/09/28 05:23:45;;;;;;;14.25;6.85;;;11.80;99.90;;;;;;5070089;28;20302;-76
2021/09/28 05:26:14;;;;;;;13.35;7.05;;;11.70;99.90;;;;;;5059065;28;20180;-73
2021/09/28 05:28:41;;;;;;;11.38;6.57;;;11.70;99.90;;;;;;5048960;28;20180;-73
2021/09/28 05:31:08;;;;;;;14.65;6.38;;;11.70;99.90;;;;;;5058885;28;20207;-75
2021/09/28 05:33:33;;;;;;;13.18;6.53;;;11.70;99.90;;;;;;5069715;28;20181;-76
2021/09/28 05:35:59;;;;;;;11.65;6.70;;;11.70;99.90;;;;;;5068741;28;20250;-75
2021/09/28 05:38:26;;;;;;;16.35;8.43;;;11.80;99.90;;;;;;5068173;28;20253;-76
2021/09/28 05:40:52;;;;;;;12.35;6.97;;;11.90;99.90;;;;;;5067685;28;20204;-74
2021/09/28 05:43:18;;;;;;;9.38;5.82;;;11.90;99.90;;;;;;5066406;28;20644;-74
2021/09/28 05:45:44;;;;;;;9.40;5.72;;;12.00;99.90;;;;;;5069503;28;20189;-75
2021/09/28 05:48:10;;;;;;;17.83;6.50;;;12.10;99.90;;;;;;5069575;28;20169;-74
2021/09/28 05:50:37;;;;;;;13.75;6.15;;;12.10;99.90;;;;;;5069296;28;20216;-73
2021/09/28 05:53:08;;;;;;;12.60;6.00;;;12.10;99.90;;;;;;5069353;28;20750;-73
2021/09/28 05:55:35;;;;;;;13.32;6.07;;;12.30;99.90;;;;;;5069072;28;20199;-74
2021/09/28 05:58:02;;;;;;;16.60;6.40;;;12.30;99.90;;;;;;5069338;28;20224;-74
2021/09/28 06:00:28;;;;;;;18.83;6.90;;;12.40;99.90;;;;;;5069514;28;20232;-75
2021/09/28 06:02:53;;;;;;;18.08;7.32;;;12.50;99.90;;;;;;5069274;28;20185;-77
2021/09/28 06:05:22;;;;;;;13.60;6.13;;;12.50;99.90;;;;;;5069238;28;20193;-78
2021/09/28 06:07:49;;;;;;;17.73;7.47;;;12.60;99.90;;;;;;5067940;28;20194;-79
2021/09/28 06:10:15;;;;;;;12.80;6.55;;;12.60;99.90;;;;;;5051219;28;20192;-78
2021/09/28 06:12:41;;;;;;;13.18;5.97;;;12.70;99.90;;;;;;5067859;28;20244;-75
2021/09/28 06:15:08;;;;;;;14.02;6.68;;;12.90;99.90;;;;;;5068066;28;20200;-75
2021/09/28 06:17:35;;;;;;;18.88;6.07;;;13.00;99.90;;;;;;5051164;28;20183;-74
2021/09/28 06:20:00;;;;;;;12.48;5.55;;;13.30;99.90;;;;;;5068686;28;20165;-75
2021/09/28 06:22:26;;;;;;;14.40;7.47;;;13.80;99.90;;;;;;5062032;28;20191;-75
2021/09/28 06:24:56;;;;;;;11.82;6.03;;;14.00;99.90;;;;;;5062231;28;20604;-75
2021/09/28 06:27:24;;;;;;;16.00;6.03;;;14.00;99.90;;;;;;5033699;28;20524;-76
2021/09/28 06:29:51;;;;;;;14.32;5.47;;;13.90;99.90;;;;;;5052143;28;20175;-76
2021/09/28 06:32:18;;;;;;;15.10;5.47;;;13.80;99.90;;;;;;5051302;28;20188;-75
2021/09/28 06:34:45;;;;;;;11.30;5.18;;;13.90;99.90;;;;;;5068871;28;20329;-76
2021/09/28 06:37:12;;;;;;;8.20;5.30;;;14.20;99.90;;;;;;5050984;28;20207;-76
2021/09/28 06:39:38;;;;;;;9.75;6.45;;;14.20;99.90;;;;;;5068629;28;20186;-73
2021/09/28 06:42:04;;;;;;;12.05;6.05;;;14.30;99.90;;;;;;5068796;28;20192;-74
2021/09/28 06:44:30;;;;;;;11.25;5.20;;;14.40;99.90;;;;;;5050428;28;20208;-74
2021/09/28 06:46:57;;;;;;;11.40;5.40;;;14.70;99.90;;;;;;5068433;28;20633;-76
2021/09/28 06:49:23;;;;;;;12.00;4.53;;;14.60;99.90;;;;;;5066842;28;20161;-75
2021/09/28 06:51:48;;;;;;;7.03;4.53;;;14.60;99.90;;;;;;5066126;28;20227;-74
2021/09/28 06:54:14;;;;;;;6.22;4.10;;;14.60;99.90;;;;;;5066733;28;20634;-75
2021/09/28 06:56:41;;;;;;;9.43;4.72;;;14.80;99.90;;;;;;5065505;28;20195;-75
2021/09/28 06:59:10;;;;;;;7.90;4.82;;;14.70;99.90;;;;;;5066652;28;20618;-75
2021/09/28 07:01:37;;;;;;;8.02;4.88;;;14.70;99.90;;;;;;5066898;28;20188;-75
2021/09/28 07:04:03;;;;;;;9.85;4.93;;;14.70;99.90;;;;;;5050081;28;20276;-73
2021/09/28 07:06:30;;;;;;;8.57;5.18;;;14.90;99.90;;;;;;5048142;28;20162;-74
2021/09/28 07:08:55;;;;;;;16.83;6.30;;;15.20;99.90;;;;;;5048184;28;20157;-75
2021/09/28 07:11:21;;;;;;;11.75;5.32;;;15.50;99.90;;;;;;5037501;28;20189;-75
2021/09/28 07:13:48;;;;;;;22.23;5.88;;;15.90;99.90;;;;;;5048200;28;20212;-74
2021/09/28 07:16:15;;;;;;;11.93;6.05;;;16.30;99.90;;;;;;5048346;28;20272;-74
2021/09/28 07:18:41;;;;;;;9.85;4.97;;;16.60;99.90;;;;;;5067061;28;20334;-74
2021/09/28 07:21:08;;;;;;;21.10;5.85;;;16.90;99.90;;;;;;5067028;28;20236;-74
2021/09/28 07:23:34;;;;;;;13.13;5.07;;;17.10;99.90;;;;;;5063710;28;20209;-74
2021/09/28 07:26:01;;;;;;;11.00;5.30;;;17.60;99.90;;;;;;5046001;28;20181;-74
2021/09/28 07:28:27;;;;;;;10.88;5.10;;;18.00;99.90;;;;;;5029562;28;20216;-74
2021/09/28 07:30:53;;;;;;;14.65;5.18;;;18.00;99.90;;;;;;5060848;28;20175;-74
2021/09/28 07:33:19;;;;;;;8.13;4.50;;;18.70;99.90;;;;;;5067359;28;20175;-74
2021/09/28 07:35:45;;;;;;;10.18;4.60;;;19.70;99.90;;;;;;5067709;28;20220;-75
2021/09/28 07:38:14;;;;;;;8.15;4.43;;;20.60;99.90;;;;;;5049682;28;20206;-75
2021/09/28 07:40:42;;;;;;;7.15;4.07;;;20.70;99.90;;;;;;5049560;28;20168;-75
2021/09/28 07:43:09;;;;;;;6.80;4.25;;;21.80;99.90;;;;;;5067451;28;20184;-74
2021/09/28 07:45:35;;;;;;;7.38;4.20;;;22.30;99.90;;;;;;5067465;28;20168;-74
2021/09/28 07:48:01;;;;;;;6.90;4.30;;;21.90;99.90;;;;;;5067122;28;20184;-74
2021/09/28 07:50:27;;;;;;;7.88;4.20;;;21.50;99.90;;;;;;5067330;28;20257;-74
2021/09/28 07:52:54;;;;;;;9.45;4.38;;;21.20;99.90;;;;;;5066563;28;20218;-76
2021/09/28 07:55:20;;;;;;;12.50;5.30;;;21.60;99.90;;;;;;5067265;28;20176;-74
2021/09/28 07:57:46;;;;;;;8.80;4.20;;;22.30;99.90;;;;;;5066930;28;20223;-74
2021/09/28 08:00:13;;;;;;;5.65;3.80;;;22.70;99.90;;;;;;5066953;28;20653;-74
2021/09/28 08:02:39;;;;;;;7.60;4.72;;;23.40;99.90;;;;;;5067136;28;20178;-75
2021/09/28 08:05:07;;;;;;;8.13;3.78;;;22.50;99.90;;;;;;5067230;28;20152;-75
2021/09/28 08:07:33;;;;;;;4.97;3.67;;;22.00;99.90;;;;;;5066951;28;20267;-75
2021/09/28 08:09:59;;;;;;;9.25;4.55;;;22.40;99.90;;;;;;5067255;28;20156;-75
2021/09/28 08:12:25;;;;;;;10.10;4.35;;;22.40;99.90;;;;;;5049347;28;20168;-73
2021/09/28 08:14:51;;;;;;;7.28;4.20;;;22.60;99.90;;;;;;5067239;28;20163;-74
2021/09/28 08:17:17;;;;;;;4.85;4.05;;;22.90;99.90;;;;;;5067382;28;20247;-75
2021/09/28 08:19:43;;;;;;;7.72;4.72;;;23.00;99.90;;;;;;5067020;28;20216;-72
2021/09/28 08:22:12;;;;;;;12.50;4.57;;;22.10;99.90;;;;;;5066975;28;20498;-74
2021/09/28 08:24:42;;;;;;;7.93;4.05;;;21.90;99.90;;;;;;5067152;28;20195;-73
2021/09/28 08:29:56;;;;;;;7.85;5.05;;;23.20;99.90;;;;;;5067116;28;20374;-74
2021/09/28 08:32:22;;;;;;;11.93;5.32;;;23.40;99.90;;;;;;5066996;28;20218;-73
2021/09/28 08:34:48;;;;;;;11.95;5.40;;;23.10;99.90;;;;;;5066942;28;20171;-73
2021/09/28 08:37:15;;;;;;;9.02;5.78;;;22.90;99.90;;;;;;5066803;28;20196;-73
2021/09/28 08:39:41;;;;;;;10.52;5.80;;;22.70;99.90;;;;;;5066695;28;20267;-73
2021/09/28 08:42:07;;;;;;;8.75;5.30;;;23.00;99.90;;;;;;5066713;28;20156;-73
2021/09/28 08:44:33;;;;;;;8.13;5.43;;;23.10;99.90;;;;;;5066764;28;20245;-73
2021/09/28 08:47:00;;;;;;;11.32;4.97;;;23.10;99.90;;;;;;5066619;28;20269;-72
2021/09/28 08:49:25;;;;;;;7.43;4.93;;;23.40;99.90;;;;;;5048707;28;20176;-72
2021/09/28 08:51:52;;;;;;;11.80;5.32;;;24.30;99.90;;;;;;5066337;28;20298;-72
2021/09/28 08:54:19;;;;;;;12.60;4.85;;;24.90;99.90;;;;;;5066615;28;20167;-71
2021/09/28 08:56:47;;;;;;;7.35;4.15;;;24.30;99.90;;;;;;5066583;28;20238;-72
2021/09/28 08:59:18;;;;;;;7.57;4.03;;;23.70;99.90;;;;;;5066669;28;20153;-72
2021/09/28 09:02:02;;;;;;;9.10;4.63;;;24.70;99.90;;;;;;5066650;28;20153;-71
2021/09/28 09:04:28;;;;;;;8.20;4.38;;;24.60;99.90;;;;;;5068722;28;20196;-71
2021/09/28 09:06:57;;;;;;;7.38;3.92;;;24.40;99.90;;;;;;5070602;28;20211;-72
2021/09/28 09:09:23;;;;;;;9.77;3.72;;;24.90;99.90;;;;;;5070430;28;20520;-71
2021/09/28 09:11:50;;;;;;;9.20;4.22;;;25.70;99.90;;;;;;5070338;28;20176;-71
2021/09/28 09:14:23;;;;;;;10.18;3.85;;;25.90;99.90;;;;;;5069770;28;20243;-72
2021/09/28 09:16:55;;;;;;;8.20;3.88;;;25.30;99.90;;;;;;5069723;28;20176;-72
2021/09/28 09:19:28;;;;;;;3.47;2.80;;;25.20;99.90;;;;;;5069420;28;20165;-73
2021/09/28 09:22:00;;;;;;;4.32;3.25;;;24.40;99.90;;;;;;5070501;28;20155;-73
2021/09/28 09:24:50;;;;;;;7.20;3.15;;;25.00;99.90;;;;;;5070063;28;20716;-72
2021/09/28 09:27:36;;;;;;;5.43;3.30;;;25.30;99.90;;;;;;5051937;28;20198;-72
2021/09/28 09:30:21;;;;;;;6.65;3.38;;;26.20;99.90;;;;;;5069337;28;20195;-72
2021/09/28 09:32:53;;;;;;;3.13;2.13;;;26.60;99.90;;;;;;5069897;28;20167;-72
2021/09/28 09:35:37;;;;;;;3.30;2.70;;;27.00;99.90;;;;;;5069983;28;20159;-72
2021/09/28 09:38:07;;;;;;;2.95;2.53;;;25.60;99.90;;;;;;5069850;28;20160;-73
2021/09/28 09:40:43;;;;;;;2.83;2.25;;;25.10;99.90;;;;;;5069856;28;20163;-72
2021/09/28 09:43:11;;;;;;;3.17;2.38;;;25.20;99.90;;;;;;5069566;28;20199;-72
2021/09/28 09:45:37;;;;;;;4.90;2.63;;;25.60;99.90;;;;;;5069639;28;20163;-72
2021/09/28 09:48:26;;;;;;;5.45;2.78;;;25.10;99.90;;;;;;5068334;28;20610;-71
2021/09/28 09:51:04;;;;;;;4.22;2.30;;;24.40;99.90;;;;;;5069188;28;20187;-72
2021/09/28 09:53:31;;;;;;;4.07;2.70;;;24.40;99.90;;;;;;5069548;28;20207;-72
2021/09/28 09:55:58;;;;;;;4.53;2.38;;;24.70;99.90;;;;;;5069389;28;20157;-72
2021/09/28 09:58:25;;;;;;;1.80;1.65;;;25.10;99.90;;;;;;5069562;28;20647;-72
2021/09/28 10:00:55;;;;;;;2.75;2.15;;;25.60;99.90;;;;;;5069244;28;20226;-72
2021/09/28 10:03:21;;;;;;;3.42;1.73;;;25.60;99.90;;;;;;5069233;28;20536;-71
2021/09/28 10:05:47;;;;;;;1.98;1.63;;;25.70;99.90;;;;;;5069543;28;20183;-71
2021/09/28 10:08:14;;;;;;;2.17;1.80;;;25.40;99.90;;;;;;5069491;28;20153;-73
2021/09/28 10:10:41;;;;;;;3.65;1.83;;;25.30;99.90;;;;;;5069375;28;20192;-73
2021/09/28 10:13:07;;;;;;;4.38;2.05;;;26.60;99.90;;;;;;5069507;28;20163;-73
2021/09/28 10:15:34;;;;;;;2.22;1.45;;;27.20;99.90;;;;;;5069141;28;20158;-73
2021/09/28 10:18:00;;;;;;;2.40;1.80;;;27.70;99.90;;;;;;5051565;28;20233;-73
2021/09/28 10:20:29;;;;;;;2.90;1.77;;;26.60;99.90;;;;;;5069320;28;20516;-73
2021/09/28 10:22:57;;;;;;;2.97;2.15;;;26.70;99.90;;;;;;5069186;28;20192;-72
2021/09/28 10:25:38;;;;;;;5.45;2.60;;;27.80;99.90;;;;;;5069172;28;20152;-72
2021/09/28 10:28:04;;;;;;;4.68;2.50;;;28.50;99.90;;;;;;5031250;28;20168;-73
2021/09/28 10:30:35;;;;;;;3.47;2.00;;;28.00;99.90;;;;;;5059358;28;20186;-73
2021/09/28 10:33:02;;;;;;;2.05;1.77;;;28.30;99.90;;;;;;5069173;28;20216;-72
2021/09/28 10:35:29;;;;;;;4.68;2.08;;;27.20;99.90;;;;;;5069037;28;20164;-73
2021/09/28 10:38:07;;;;;;;3.35;2.05;;;26.90;99.90;;;;;;5050847;28;20195;-73
2021/09/28 10:40:33;;;;;;;5.32;2.20;;;26.80;99.90;;;;;;5068999;28;20168;-73
2021/09/28 10:43:00;;;;;;;2.70;1.60;;;28.20;99.90;;;;;;5068806;28;20256;-73
2021/09/28 10:45:31;;;;;;;5.03;2.05;;;29.20;99.90;;;;;;5068637;28;20225;-73
2021/09/28 10:47:59;;;;;;;3.55;1.80;;;29.90;99.90;;;;;;5068852;28;20160;-73
2021/09/28 10:50:26;;;;;;;2.08;1.50;;;31.00;99.90;;;;;;5068765;28;20160;-73
2021/09/28 10:52:55;;;;;;;3.22;1.52;;;31.50;96.80;;;;;;5068558;28;20227;-73
2021/09/28 10:55:23;;;;;;;2.35;2.08;;;31.70;99.00;;;;;;5068595;28;20162;-71
2021/09/28 10:58:09;;;;;;;3.28;2.03;;;31.30;98.60;;;;;;5068577;28;20528;-71
2021/09/28 11:00:38;;;;;;;2.47;1.73;;;30.00;97.40;;;;;;5050493;28;20374;-74
2021/09/28 11:03:04;;;;;;;3.55;1.80;;;29.90;98.10;;;;;;5068305;28;20251;-72
2021/09/28 11:05:30;;;;;;;2.60;1.70;;;29.70;99.00;;;;;;5068378;28;20159;-74
2021/09/28 11:07:57;;;;;;;3.17;1.80;;;28.90;98.60;;;;;;5068214;28;20613;-72
2021/09/28 11:10:23;;;;;;;2.72;1.40;;;27.10;99.70;;;;;;5068153;28;20152;-73
2021/09/28 11:12:49;;;;;;;4.18;2.10;;;26.10;99.90;;;;;;5068134;28;20199;-73
2021/09/28 11:15:19;;;;;;;2.20;1.80;;;26.20;99.90;;;;;;5067950;28;20537;-71
2021/09/28 11:17:45;;;;;;;1.52;1.10;;;27.60;99.50;;;;;;5068071;28;20180;-71
2021/09/28 11:20:31;;;;;;;2.72;1.85;;;27.00;99.60;;;;;;5068166;28;20161;-72
2021/09/28 11:22:59;;;;;;;3.72;1.45;;;26.80;99.90;;;;;;5067931;28;20198;-72
2021/09/28 11:25:27;;;;;;;2.22;1.60;;;27.50;99.40;;;;;;5067771;28;20156;-72
2021/09/28 11:28:05;;;;;;;2.33;1.67;;;29.60;99.80;;;;;;5067220;28;20172;-73
2021/09/28 11:30:35;;;;;;;4.20;1.40;;;31.00;97.10;;;;;;5067824;28;20152;-73
2021/09/28 11:33:06;;;;;;;1.95;1.45;;;31.30;98.00;;;;;;5067664;28;20172;-73
2021/09/28 11:35:32;;;;;;;2.38;1.88;;;30.60;96.10;;;;;;5049821;28;20180;-73
2021/09/28 11:38:00;;;;;;;4.18;1.67;;;30.70;95.70;;;;;;5067804;28;20164;-73
2021/09/28 11:40:35;;;;;;;1.67;1.33;;;30.40;95.30;;;;;;5067578;28;20257;-72
2021/09/28 11:43:24;;;;;;;2.38;1.30;;;29.60;96.60;;;;;;5067502;28;20221;-73
2021/09/28 11:46:01;;;;;;;1.30;1.20;;;30.70;96.40;;;;;;5067488;28;20243;-73
2021/09/28 11:48:35;;;;;;;1.30;1.20;;;31.60;95.80;;;;;;5067016;28;20235;-73
2021/09/28 11:51:23;;;;;;;1.50;1.10;;;31.30;93.50;;;;;;5066925;28;20199;-71
2021/09/28 11:53:54;;;;;;;1.23;1.13;;;28.70;94.70;;;;;;5067361;28;20172;-72
2021/09/28 11:56:23;;;;;;;4.47;1.20;;;28.10;96.30;;;;;;5067327;28;20163;-73
2021/09/28 11:59:09;;;;;;;2.05;1.45;;;26.70;97.10;;;;;;5068303;28;20160;-72
2021/09/28 12:01:35;;;;;;;1.95;1.42;;;25.40;98.60;;;;;;5008815;28;20205;-73
2021/09/28 12:04:16;;;;;;;1.23;1.13;;;25.00;99.00;;;;;;5010521;28;20312;-72
2021/09/28 12:09:39;;;;;;;4.18;1.60;;;24.40;99.90;;;;;;5026194;28;20173;-72
2021/09/28 12:12:12;;;;;;;2.13;1.52;;;24.90;99.90;;;;;;5005956;28;20344;-72
2021/09/28 12:14:40;;;;;;;1.48;1.33;;;24.90;99.90;;;;;;4991698;28;20181;-72
2021/09/28 12:17:19;;;;;;;3.33;1.58;;;24.60;99.90;;;;;;5025415;28;20207;-71
2021/09/28 12:19:49;;;;;;;3.58;1.23;;;24.70;99.90;;;;;;5025368;28;20157;-71
2021/09/28 12:22:30;;;;;;;1.35;1.10;;;24.70;99.90;;;;;;5024971;28;20181;-71
2021/09/28 12:24:58;;;;;;;1.02;0.93;;;24.70;99.20;;;;;;5024891;28;20213;-71
2021/09/28 12:27:25;;;;;;;1.27;1.10;;;24.60;99.90;;;;;;5025140;28;20256;-72
2021/09/28 12:29:53;;;;;;;1.05;0.95;;;24.40;99.90;;;;;;5025280;28;20158;-73
2021/09/28 12:32:24;;;;;;;1.27;1.10;;;24.50;99.90;;;;;;5041470;28;20184;-73
2021/09/28 12:34:56;;;;;;;2.03;1.40;;;24.50;99.40;;;;;;5067292;28;20176;-73
2021/09/28 12:37:24;;;;;;;1.58;1.15;;;24.50;99.90;;;;;;5067476;28;20196;-72
2021/09/28 12:40:07;;;;;;;1.45;1.30;;;24.50;99.90;;;;;;5071130;28;20215;-72
2021/09/28 12:42:35;;;;;;;3.22;1.30;;;24.50;99.70;;;;;;5051057;28;20202;-73
2021/09/28 12:45:11;;;;;;;1.40;1.10;;;24.50;99.90;;;;;;5050911;28;20215;-72
2021/09/28 12:47:39;;;;;;;3.58;1.23;;;24.70;99.90;;;;;;5050728;28;20207;-71
2021/09/28 12:50:24;;;;;;;2.47;1.60;;;24.90;99.90;;;;;;5050708;28;20191;-71